Time;durP1;ratioP1;P1;durP2;ratioP2;P2;SDS_P1;SDS_P2;PMS_P1;PMS_P2;Temp;Humidity;BMP_temperature;BMP_pressure;BME280_temperature;BME280_humidity;BME280_pressure;Samples;Min_cycle;Max_cycle;Signal;HPM_P1;HPM_P2
2023/07/19 00:00:21;;;;;;;3.03;1.50;;;;;;;-145.18;100.00;46660.41;5074498;28;20178;-62
2023/07/19 00:02:47;;;;;;;2.20;1.47;;;;;;;-145.18;100.00;46662.34;5073447;28;20028;-62
2023/07/19 00:05:12;;;;;;;5.53;2.00;;;;;;;-145.18;100.00;46658.44;5072717;28;20032;-62
2023/07/19 00:07:38;;;;;;;4.10;2.00;;;;;;;-145.18;100.00;46658.44;5072464;28;20055;-62
2023/07/19 00:10:05;;;;;;;4.00;1.63;;;;;;;-145.18;100.00;46656.50;5073775;28;20040;-62
2023/07/19 00:12:31;;;;;;;3.10;1.60;;;;;;;-145.18;100.00;46656.50;5073699;28;20036;-62
2023/07/19 00:14:57;;;;;;;4.47;1.60;;;;;;;-145.18;100.00;46654.53;5073880;28;20085;-62
2023/07/19 00:17:23;;;;;;;2.83;2.17;;;;;;;-145.18;100.00;46642.81;5073554;28;20029;-62
2023/07/19 00:19:48;;;;;;;2.60;1.80;;;;;;;-145.18;100.00;46642.81;5070060;28;20384;-62
2023/07/19 00:22:14;;;;;;;4.30;1.87;;;;;;;-145.18;100.00;46642.81;5073135;28;20475;-62
2023/07/19 00:24:39;;;;;;;3.70;1.83;;;;;;;-145.18;100.00;46650.63;5073556;28;20053;-62
2023/07/19 00:27:05;;;;;;;3.67;1.70;;;;;;;-145.18;100.00;46646.72;5072404;28;20119;-62
2023/07/19 00:29:30;;;;;;;2.83;1.53;;;;;;;-145.18;100.00;46650.63;5073517;28;20472;-62
2023/07/19 00:31:55;;;;;;;3.07;1.90;;;;;;;-145.18;100.00;46646.72;5073257;28;20037;-62
2023/07/19 00:34:21;;;;;;;4.43;1.77;;;;;;;-145.18;100.00;46646.72;5072559;28;20029;-62
2023/07/19 00:36:46;;;;;;;6.20;2.00;;;;;;;-145.18;100.00;46644.78;5073297;28;20111;-62
2023/07/19 00:39:12;;;;;;;4.63;2.33;;;;;;;-145.18;100.00;46650.63;5073069;28;20032;-62
2023/07/19 00:41:37;;;;;;;3.20;1.83;;;;;;;-145.18;100.00;46652.59;5073565;28;20044;-62
2023/07/19 00:44:03;;;;;;;6.80;2.00;;;;;;;-145.18;100.00;46654.53;5071500;28;20036;-62
2023/07/19 00:46:29;;;;;;;4.70;2.10;;;;;;;-145.18;100.00;46652.59;5073265;28;20098;-62
2023/07/19 00:48:56;;;;;;;2.83;1.87;;;;;;;-145.18;100.00;46646.72;5073097;28;20028;-62
2023/07/19 00:51:21;;;;;;;4.63;2.10;;;;;;;-145.18;100.00;46646.72;5073278;28;20385;-63
2023/07/19 00:53:48;;;;;;;4.50;2.07;;;;;;;-145.18;100.00;46646.72;5073392;28;20035;-62
2023/07/19 00:56:13;;;;;;;4.20;2.20;;;;;;;-145.18;100.00;46658.44;5071427;28;20535;-62
2023/07/19 00:58:40;;;;;;;4.83;1.97;;;;;;;-145.18;100.00;46652.59;5075474;28;20116;-62
2023/07/19 01:01:06;;;;;;;4.43;2.03;;;;;;;-145.18;100.00;46652.59;5073210;28;20028;-62
2023/07/19 01:03:32;;;;;;;4.83;1.90;;;;;;;-145.18;100.00;46660.41;5072768;28;20103;-62
2023/07/19 01:05:59;;;;;;;5.13;1.87;;;;;;;-145.18;100.00;46654.53;5073036;28;20539;-63
2023/07/19 01:08:24;;;;;;;3.33;2.00;;;;;;;-145.18;100.00;46650.63;5072586;28;20036;-62
2023/07/19 01:10:51;;;;;;;4.87;1.97;;;;;;;-145.18;100.00;46660.41;5072763;28;20442;-62
2023/07/19 01:13:16;;;;;;;3.87;1.90;;;;;;;-145.18;100.00;46654.53;5072747;28;20063;-62
2023/07/19 01:15:42;;;;;;;4.57;2.17;;;;;;;-145.18;100.00;46656.50;5072620;28;20473;-62
2023/07/19 01:18:07;;;;;;;4.23;2.10;;;;;;;-145.18;100.00;46654.53;5072825;28;20035;-62
2023/07/19 01:20:33;;;;;;;3.53;2.03;;;;;;;-145.18;100.00;46656.50;5072039;28;20055;-62
2023/07/19 01:22:59;;;;;;;3.37;1.87;;;;;;;-145.18;100.00;46646.72;5072542;28;20032;-63
2023/07/19 01:25:24;;;;;;;8.37;2.40;;;;;;;-145.18;100.00;46656.50;5072243;28;20056;-63
2023/07/19 01:27:50;;;;;;;6.73;2.03;;;;;;;-145.18;100.00;46646.72;5072437;28;20028;-62
2023/07/19 01:30:16;;;;;;;2.97;2.10;;;;;;;-145.18;100.00;46648.69;5072618;28;20493;-62
2023/07/19 01:32:41;;;;;;;5.90;2.40;;;;;;;-145.18;100.00;46648.69;5072691;28;20037;-62
2023/07/19 01:35:07;;;;;;;6.17;2.40;;;;;;;-145.18;100.00;46648.69;5072571;28;20131;-58
2023/07/19 01:37:33;;;;;;;2.83;1.97;;;;;;;-145.18;100.00;46648.69;5072807;28;20032;-59
2023/07/19 01:40:00;;;;;;;4.90;2.30;;;;;;;-145.18;100.00;46652.59;5072515;28;20040;-59
2023/07/19 01:42:26;;;;;;;4.80;2.47;;;;;;;-145.18;100.00;46654.53;5071329;28;20060;-59
2023/07/19 01:44:51;;;;;;;4.80;2.30;;;;;;;-145.18;100.00;46658.44;5072134;28;20479;-59
2023/07/19 01:47:17;;;;;;;3.00;1.97;;;;;;;-145.18;100.00;46654.53;5072258;28;20082;-59
2023/07/19 01:49:42;;;;;;;3.57;2.00;;;;;;;-145.18;100.00;46658.44;5072147;28;20036;-58
2023/07/19 01:52:08;;;;;;;3.00;2.10;;;;;;;-145.18;100.00;46656.50;5071571;28;20400;-59
2023/07/19 01:54:33;;;;;;;4.10;2.67;;;;;;;-145.18;100.00;46652.59;5072109;28;20032;-59
2023/07/19 01:56:59;;;;;;;5.40;2.60;;;;;;;-145.18;100.00;46656.50;5071625;28;20488;-58
2023/07/19 01:59:24;;;;;;;5.10;2.70;;;;;;;-145.18;100.00;46654.53;5070907;28;20080;-58
2023/07/19 02:01:50;;;;;;;6.73;2.70;;;;;;;-145.18;100.00;46658.44;5069178;28;20166;-58
2023/07/19 02:04:15;;;;;;;3.73;2.37;;;;;;;-145.18;100.00;46654.53;5071307;28;20035;-59
2023/07/19 02:06:40;;;;;;;4.97;2.47;;;;;;;-145.18;100.00;46660.41;5071840;28;20051;-59
2023/07/19 02:09:06;;;;;;;5.23;3.00;;;;;;;-145.18;100.00;46656.50;5071846;28;20028;-58
2023/07/19 02:11:31;;;;;;;8.03;3.00;;;;;;;-145.18;100.00;46670.16;5071726;28;20365;-58
2023/07/19 02:13:57;;;;;;;3.93;2.73;;;;;;;-145.18;100.00;46650.63;5071836;28;20034;-58
2023/07/19 02:16:22;;;;;;;4.80;2.77;;;;;;;-145.18;100.00;46652.59;5071511;28;20511;-58
2023/07/19 02:18:47;;;;;;;8.60;2.90;;;;;;;-145.18;100.00;46656.50;5071789;28;20028;-58
2023/07/19 02:21:13;;;;;;;6.03;2.87;;;;;;;-145.18;100.00;46646.72;5070168;28;20116;-59
2023/07/19 02:23:38;;;;;;;8.77;3.70;;;;;;;-145.18;100.00;46648.69;5071503;28;20056;-58
2023/07/19 02:26:03;;;;;;;8.57;3.00;;;;;;;-145.18;100.00;46650.63;5071944;28;20119;-59
2023/07/19 02:28:29;;;;;;;5.63;3.23;;;;;;;-145.18;100.00;46644.78;5070846;28;20385;-59
2023/07/19 02:30:54;;;;;;;5.20;3.17;;;;;;;-145.18;100.00;46650.63;5071404;28;20028;-59
2023/07/19 02:33:20;;;;;;;6.27;3.00;;;;;;;-145.18;100.00;46646.72;5071246;28;20552;-59
2023/07/19 02:35:52;;;;;;;6.30;3.10;;;;;;;-145.18;100.00;46646.72;5070442;28;20036;-59
2023/07/19 02:38:17;;;;;;;5.97;3.30;;;;;;;-145.18;100.00;46640.88;5071125;28;20035;-59
2023/07/19 02:40:43;;;;;;;5.27;2.87;;;;;;;-145.18;100.00;46642.81;5071541;28;20028;-59
2023/07/19 02:43:08;;;;;;;6.47;3.47;;;;;;;-145.18;100.00;46648.69;5070226;28;20384;-60
2023/07/19 02:45:35;;;;;;;6.83;3.30;;;;;;;-145.18;100.00;46644.78;5070063;28;20036;-59
2023/07/19 02:48:00;;;;;;;4.70;3.37;;;;;;;-145.18;100.00;46640.88;5070433;28;20123;-59
2023/07/19 02:50:25;;;;;;;7.27;3.50;;;;;;;-145.18;100.00;46652.59;5071636;28;20124;-59
2023/07/19 02:52:51;;;;;;;5.43;3.53;;;;;;;-145.18;100.00;46679.94;5067670;28;20146;-59
2023/07/19 02:55:16;;;;;;;6.77;3.40;;;;;;;-145.18;100.00;46677.97;5071936;28;20112;-59
2023/07/19 02:57:42;;;;;;;5.03;3.30;;;;;;;-145.18;100.00;46646.72;5071197;28;20486;-59
2023/07/19 03:00:08;;;;;;;5.43;3.87;;;;;;;-145.18;100.00;46679.94;5071603;28;20064;-59
2023/07/19 03:02:33;;;;;;;6.33;2.90;;;;;;;-145.18;100.00;46677.97;5070432;28;20063;-58
2023/07/19 03:04:58;;;;;;;5.97;3.10;;;;;;;-145.18;100.00;46642.81;5070893;28;20029;-59
2023/07/19 03:07:24;;;;;;;8.87;4.57;;;;;;;-145.18;100.00;46679.94;5070465;28;20404;-59
2023/07/19 03:09:49;;;;;;;9.03;3.50;;;;;;;-145.18;100.00;46679.94;5071433;28;20028;-59
2023/07/19 03:12:15;;;;;;;5.30;3.33;;;;;;;-145.18;100.00;46679.94;5067240;28;20392;-59
2023/07/19 03:14:41;;;;;;;7.77;4.20;;;;;;;-145.18;100.00;46660.41;5070845;28;20058;-59
2023/07/19 03:17:06;;;;;;;7.10;3.70;;;;;;;-145.18;100.00;46660.41;5070767;28;20024;-59
2023/07/19 03:19:31;;;;;;;8.60;3.80;;;;;;;-145.18;100.00;46660.41;5067277;28;20068;-59
2023/07/19 03:21:57;;;;;;;4.93;3.83;;;;;;;-145.18;100.00;46644.78;5065576;28;20523;-58
2023/07/19 03:24:22;;;;;;;4.67;3.43;;;;;;;-145.18;100.00;46679.94;5067698;28;20093;-59
2023/07/19 03:26:48;;;;;;;6.43;3.67;;;;;;;-145.18;100.00;46660.41;5070988;28;20032;-59
2023/07/19 03:29:13;;;;;;;8.87;3.83;;;;;;;-145.18;100.00;46640.88;5038404;28;20067;-59
2023/07/19 03:31:39;;;;;;;4.67;3.20;;;;;;;-145.18;100.00;46640.88;5070480;28;20036;-58
2023/07/19 03:34:04;;;;;;;9.03;3.77;;;;;;;-145.18;100.00;46640.88;5051983;28;20480;-58
2023/07/19 03:36:30;;;;;;;8.13;4.20;;;;;;;-145.18;100.00;46642.81;5070474;28;20036;-59
2023/07/19 03:38:55;;;;;;;6.37;3.57;;;;;;;-145.18;100.00;46644.78;5068891;28;20043;-59
2023/07/19 03:41:20;;;;;;;6.40;3.97;;;;;;;-145.18;100.00;46660.41;5069509;28;20047;-59
2023/07/19 03:43:46;;;;;;;6.87;3.90;;;;;;;-145.18;100.00;46677.97;5070257;28;20043;-59
2023/07/19 03:46:11;;;;;;;6.90;3.80;;;;;;;-145.18;100.00;46642.81;5065021;28;20127;-59
2023/07/19 03:48:37;;;;;;;6.73;3.70;;;;;;;-145.18;100.00;46679.94;5069294;28;20056;-59
2023/07/19 03:51:03;;;;;;;7.67;3.80;;;;;;;-145.18;100.00;46677.97;5070285;28;20063;-59
2023/07/19 03:53:29;;;;;;;9.20;4.20;;;;;;;-145.18;100.00;46660.41;5065391;28;20033;-59
2023/07/19 03:55:56;;;;;;;8.03;4.00;;;;;;;-145.18;100.00;46676.03;5068716;28;20048;-59
2023/07/19 03:58:24;;;;;;;7.07;4.43;;;;;;;-145.18;100.00;46679.94;5069672;28;20071;-59
2023/07/19 04:00:52;;;;;;;7.77;4.30;;;;;;;-145.18;100.00;46677.97;5066354;28;20522;-59
2023/07/19 04:03:17;;;;;;;11.30;4.80;;;;;;;-145.18;100.00;46660.41;5070965;28;20032;-59
2023/07/19 04:05:42;;;;;;;8.13;4.67;;;;;;;-145.18;100.00;46660.41;5073049;28;20028;-59
2023/07/19 04:08:08;;;;;;;7.70;5.53;;;;;;;-145.18;100.00;46642.81;5068141;28;20036;-59
2023/07/19 04:10:33;;;;;;;6.50;4.60;;;;;;;-145.18;100.00;46677.97;5071461;28;20097;-59
2023/07/19 04:12:59;;;;;;;9.43;5.17;;;;;;;-145.18;100.00;46676.03;5070610;28;20064;-59
2023/07/19 04:15:24;;;;;;;9.93;4.53;;;;;;;-145.18;100.00;46642.81;5072573;28;20082;-59
2023/07/19 04:17:49;;;;;;;8.07;4.80;;;;;;;-145.18;100.00;46640.88;5074245;28;20020;-60
2023/07/19 04:20:15;;;;;;;12.33;5.00;;;;;;;-145.18;100.00;46642.81;5054877;28;20056;-59
2023/07/19 04:22:40;;;;;;;11.23;5.63;;;;;;;-145.18;100.00;46640.88;5074235;28;20032;-59
2023/07/19 04:25:06;;;;;;;8.63;5.50;;;;;;;-145.18;100.00;46640.88;5073286;28;20060;-59
2023/07/19 04:27:32;;;;;;;7.83;4.90;;;;;;;-145.18;100.00;46679.94;5074103;28;20040;-59
2023/07/19 04:29:57;;;;;;;9.00;6.00;;;;;;;-145.18;100.00;46644.78;5072499;28;20071;-60
2023/07/19 04:32:22;;;;;;;10.03;5.90;;;;;;;-145.18;100.00;46677.97;5073452;28;20063;-59
2023/07/19 04:34:48;;;;;;;7.17;5.17;;;;;;;-145.18;100.00;46644.78;5071987;28;20040;-59
2023/07/19 04:37:13;;;;;;;9.57;5.77;;;;;;;-145.18;100.00;46679.94;5073023;28;20040;-59
2023/07/19 04:39:38;;;;;;;12.97;6.57;;;;;;;-145.18;100.00;46640.88;5071152;28;20056;-59
2023/07/19 04:42:04;;;;;;;9.23;5.90;;;;;;;-145.18;100.00;46638.91;5073927;28;20110;-59
2023/07/19 04:44:29;;;;;;;13.10;5.87;;;;;;;-145.18;100.00;46676.03;5073722;28;20021;-59
2023/07/19 04:46:55;;;;;;;7.43;5.50;;;;;;;-145.18;100.00;46636.94;5055448;28;20121;-59
2023/07/19 04:49:20;;;;;;;9.70;5.20;;;;;;;-145.18;100.00;46638.91;5075085;28;20040;-59
2023/07/19 04:51:45;;;;;;;11.87;5.37;;;;;;;-145.18;100.00;46640.88;5071870;28;20498;-59
2023/07/19 04:54:11;;;;;;;11.03;5.70;;;;;;;-145.18;100.00;46646.72;5071101;28;20067;-59
2023/07/19 04:56:36;;;;;;;11.83;6.47;;;;;;;-145.18;100.00;46636.94;5069906;28;20033;-59
2023/07/19 04:59:02;;;;;;;10.20;6.40;;;;;;;-145.18;100.00;46644.78;5073261;28;20028;-59
2023/07/19 05:01:27;;;;;;;10.37;5.37;;;;;;;-145.18;100.00;46638.91;5070483;28;20024;-59
2023/07/19 05:03:53;;;;;;;9.27;5.33;;;;;;;-145.18;100.00;46635.00;5072976;28;20075;-59
2023/07/19 05:06:18;;;;;;;10.13;5.90;;;;;;;-145.18;100.00;46636.94;5073109;28;20028;-59
2023/07/19 05:08:44;;;;;;;12.77;5.87;;;;;;;-145.18;100.00;46640.88;5072382;28;20507;-59
2023/07/19 05:11:09;;;;;;;9.27;5.60;;;;;;;-145.18;100.00;46644.78;5070464;28;20024;-59
2023/07/19 05:13:35;;;;;;;13.60;5.30;;;;;;;-145.18;100.00;46642.81;5072648;28;20028;-59
2023/07/19 05:16:03;;;;;;;9.70;5.60;;;;;;;-145.18;100.00;46644.78;5072574;28;20024;-59
2023/07/19 05:18:28;;;;;;;8.70;5.60;;;;;;;-145.18;100.00;46642.81;5072715;28;20024;-59
2023/07/19 05:20:54;;;;;;;8.60;6.13;;;;;;;-145.18;100.00;46636.94;5054706;28;20085;-59
2023/07/19 05:23:20;;;;;;;7.17;5.40;;;;;;;-145.18;100.00;46644.78;5072399;28;20085;-59
2023/07/19 05:25:46;;;;;;;11.33;5.97;;;;;;;-145.18;100.00;46638.91;5063437;28;20095;-59
2023/07/19 05:28:12;;;;;;;7.53;4.93;;;;;;;-145.18;100.00;46646.72;5070689;28;20047;-59
2023/07/19 05:30:37;;;;;;;10.77;5.50;;;;;;;-145.18;100.00;46642.81;5069842;28;20024;-59
2023/07/19 05:33:03;;;;;;;10.17;6.07;;;;;;;-145.18;100.00;46640.88;5072418;28;20021;-59
2023/07/19 05:35:30;;;;;;;13.57;5.93;;;;;;;-145.18;100.00;46644.78;5066900;28;20047;-59
2023/07/19 05:37:56;;;;;;;8.43;5.73;;;;;;;-145.18;100.00;46642.81;5066346;28;20047;-59
2023/07/19 05:40:21;;;;;;;7.60;5.67;;;;;;;-145.18;100.00;46642.81;5063508;28;20032;-59
2023/07/19 05:42:47;;;;;;;5.87;4.57;;;;;;;-145.18;100.00;46642.81;5064817;28;20035;-59
2023/07/19 05:45:13;;;;;;;11.90;5.40;;;;;;;-145.18;100.00;46644.78;5064207;28;20045;-59
2023/07/19 05:47:38;;;;;;;9.53;5.53;;;;;;;-145.18;100.00;46642.81;5064789;28;20093;-59
2023/07/19 05:50:04;;;;;;;9.50;5.10;;;;;;;-145.18;100.00;46642.81;5069217;28;20033;-59
2023/07/19 05:52:29;;;;;;;11.50;4.53;;;;;;;-145.18;100.00;46644.78;5067336;28;20036;-59
2023/07/19 05:54:55;;;;;;;7.17;4.23;;;;;;;-145.18;100.00;46644.78;5066624;28;20033;-60
2023/07/19 05:57:20;;;;;;;9.10;4.27;;;;;;;-145.18;100.00;46642.81;5066431;28;20469;-60
2023/07/19 05:59:46;;;;;;;6.97;3.70;;;;;;;-145.18;100.00;46654.53;5067709;28;20029;-59
2023/07/19 06:02:11;;;;;;;11.97;3.83;;;;;;;-145.18;100.00;46646.72;5068637;28;20044;-59
2023/07/19 06:04:37;;;;;;;6.53;3.23;;;;;;;-145.18;100.00;46650.63;5071264;28;20025;-59
2023/07/19 06:07:02;;;;;;;6.20;3.40;;;;;;;-145.18;100.00;46660.41;5072652;28;20067;-59
2023/07/19 06:09:28;;;;;;;6.17;3.27;;;;;;;-145.18;100.00;46648.69;5073086;28;20060;-59
2023/07/19 06:11:56;;;;;;;7.37;3.57;;;;;;;-145.18;100.00;46656.50;5072709;28;20037;-59
2023/07/19 06:14:23;;;;;;;5.90;3.10;;;;;;;-145.18;100.00;46654.53;5072701;28;20024;-59
2023/07/19 06:16:48;;;;;;;7.47;3.13;;;;;;;-145.18;100.00;46656.50;5071296;28;20032;-64
2023/07/19 06:19:16;;;;;;;6.73;3.57;;;;;;;-145.18;100.00;46652.59;5071142;28;20120;-64
2023/07/19 06:21:41;;;;;;;5.87;3.33;;;;;;;-145.18;100.00;46656.50;5071326;28;20037;-64
2023/07/19 06:24:07;;;;;;;5.17;2.53;;;;;;;-145.18;100.00;46658.44;5071169;28;20060;-63
2023/07/19 06:26:33;;;;;;;5.47;3.20;;;;;;;-145.18;100.00;46650.63;5072452;28;20424;-63
2023/07/19 06:28:59;;;;;;;8.63;3.07;;;;;;;-145.18;100.00;46652.59;5072030;28;20072;-63
2023/07/19 06:31:25;;;;;;;6.60;3.00;;;;;;;-145.18;100.00;46650.63;5072341;28;20109;-63
2023/07/19 06:33:50;;;;;;;5.83;3.30;;;;;;;-145.18;100.00;46650.63;5071732;28;20055;-63
2023/07/19 06:36:15;;;;;;;8.73;3.70;;;;;;;-145.18;100.00;46658.44;5072046;28;20033;-64
2023/07/19 06:38:41;;;;;;;6.70;3.63;;;;;;;-145.18;100.00;46652.59;5071775;28;20107;-63
2023/07/19 06:41:06;;;;;;;7.50;3.23;;;;;;;-145.18;100.00;46654.53;5071866;28;20036;-63
2023/07/19 06:43:32;;;;;;;9.03;3.50;;;;;;;-145.18;100.00;46658.44;5072393;28;20127;-64
2023/07/19 06:45:58;;;;;;;7.30;3.43;;;;;;;-145.18;100.00;46650.63;5072101;28;20035;-63
2023/07/19 06:48:23;;;;;;;7.63;3.80;;;;;;;-145.18;100.00;46654.53;5071837;28;20044;-63
2023/07/19 06:50:49;;;;;;;8.83;4.10;;;;;;;-145.18;100.00;46652.59;5071726;28;20043;-64
2023/07/19 06:53:15;;;;;;;6.83;3.37;;;;;;;-145.18;100.00;46660.41;5072413;28;20044;-63
2023/07/19 06:55:41;;;;;;;5.63;3.63;;;;;;;-145.18;100.00;46654.53;5072221;28;20403;-63
2023/07/19 06:58:07;;;;;;;6.47;4.10;;;;;;;-145.18;100.00;46650.63;5072207;28;20178;-64
2023/07/19 07:00:33;;;;;;;10.97;4.07;;;;;;;-145.18;100.00;46652.59;5070881;28;20094;-64
2023/07/19 07:02:58;;;;;;;7.20;3.47;;;;;;;-145.18;100.00;46650.63;5071573;28;20404;-63
2023/07/19 07:05:24;;;;;;;10.03;3.50;;;;;;;-145.18;100.00;46648.69;5072099;28;20036;-63
2023/07/19 07:07:49;;;;;;;6.47;3.73;;;;;;;-145.18;100.00;46660.41;5071623;28;20029;-63
2023/07/19 07:10:14;;;;;;;7.53;3.43;;;;;;;-145.18;100.00;46660.41;5071598;28;20044;-64
2023/07/19 07:12:42;;;;;;;10.07;3.43;;;;;;;-145.18;100.00;46662.34;5071775;28;20052;-64
2023/07/19 07:15:07;;;;;;;8.20;3.10;;;;;;;-145.18;100.00;46660.41;5071774;28;20048;-64
2023/07/19 07:17:33;;;;;;;5.80;3.50;;;;;;;-145.18;100.00;46660.41;5071418;28;20040;-63
2023/07/19 07:19:58;;;;;;;9.23;3.00;;;;;;;-145.18;100.00;46658.44;5071694;28;20047;-63
2023/07/19 07:22:24;;;;;;;6.30;2.23;;;;;;;-145.18;100.00;46656.50;5071830;28;20041;-63
2023/07/19 07:24:49;;;;;;;11.13;2.70;;;;;;;-145.18;100.00;46662.34;5069904;28;20164;-64
2023/07/19 07:27:14;;;;;;;6.63;2.20;;;;;;;-145.18;100.00;46660.41;5070214;28;20044;-65
2023/07/19 07:29:41;;;;;;;7.13;1.97;;;;;;;-145.18;100.00;46656.50;5071341;28;20187;-63
2023/07/19 07:32:10;;;;;;;5.47;2.40;;;;;;;-145.18;100.00;46660.41;5071530;28;20043;-64
2023/07/19 07:34:35;;;;;;;4.67;2.10;;;;;;;-145.18;100.00;46654.53;5071570;28;20033;-65
2023/07/19 07:37:01;;;;;;;7.90;2.47;;;;;;;-145.18;100.00;46664.31;5071844;28;20043;-64
2023/07/19 07:39:26;;;;;;;8.67;2.40;;;;;;;-145.18;100.00;46652.59;5070614;28;20067;-64
2023/07/19 07:41:52;;;;;;;4.43;2.33;;;;;;;-145.18;100.00;46658.44;5065359;28;20033;-66
2023/07/19 07:44:17;;;;;;;8.40;2.77;;;;;;;-145.18;100.00;46658.44;5071547;28;20420;-66
2023/07/19 07:46:42;;;;;;;7.07;2.57;;;;;;;-145.18;100.00;46652.59;5061877;28;20024;-65
2023/07/19 07:49:08;;;;;;;9.80;3.33;;;;;;;-145.18;100.00;46652.59;5069516;28;20044;-66
2023/07/19 07:51:35;;;;;;;6.20;2.70;;;;;;;-145.18;100.00;46648.69;5075431;28;20031;-65
2023/07/19 07:54:00;;;;;;;8.57;3.17;;;;;;;-145.18;100.00;46646.72;5075017;28;20427;-65
2023/07/19 07:56:25;;;;;;;8.27;3.00;;;;;;;-145.18;100.00;46646.72;5075522;28;20038;-64
2023/07/19 07:58:51;;;;;;;7.23;3.23;;;;;;;-145.18;100.00;46650.63;5074776;28;20111;-66
2023/07/19 08:01:16;;;;;;;9.83;3.10;;;;;;;-145.18;100.00;46650.63;5075086;28;20035;-65
2023/07/19 08:03:42;;;;;;;8.30;2.63;;;;;;;-145.18;100.00;46650.63;5074766;28;20039;-65
2023/07/19 08:06:07;;;;;;;6.83;3.07;;;;;;;-145.18;100.00;46652.59;5074816;28;20028;-65
2023/07/19 08:08:32;;;;;;;6.23;2.37;;;;;;;-145.18;100.00;46660.41;5074810;28;20103;-65
2023/07/19 08:10:58;;;;;;;4.33;2.47;;;;;;;-145.18;100.00;46662.34;5074637;28;20081;-65
2023/07/19 08:13:23;;;;;;;5.80;2.47;;;;;;;-145.18;100.00;46662.34;5074677;28;20032;-65
2023/07/19 08:15:49;;;;;;;8.37;3.00;;;;;;;-145.18;100.00;46660.41;5075164;28;20043;-65
2023/07/19 08:18:14;;;;;;;5.23;2.60;;;;;;;-145.18;100.00;46660.41;5074489;28;20476;-65
2023/07/19 08:20:40;;;;;;;10.53;2.80;;;;;;;-145.18;100.00;46662.34;5074589;28;20089;-65
2023/07/19 08:23:06;;;;;;;8.40;3.00;;;;;;;-145.18;100.00;46658.44;5074676;28;20043;-65
2023/07/19 08:25:34;;;;;;;9.83;3.17;;;;;;;-145.18;100.00;46666.25;5074601;28;20053;-65
2023/07/19 08:27:59;;;;;;;9.93;3.07;;;;;;;-145.18;100.00;46666.25;5074152;28;20056;-64
2023/07/19 08:30:24;;;;;;;4.03;2.60;;;;;;;-145.18;100.00;46668.22;5073272;28;20029;-65
2023/07/19 08:32:50;;;;;;;10.70;2.63;;;;;;;-145.18;100.00;46670.16;5074232;28;20051;-64
2023/07/19 08:35:16;;;;;;;3.87;2.40;;;;;;;-145.18;100.00;46644.78;5073190;28;20036;-65
2023/07/19 08:37:43;;;;;;;6.90;2.97;;;;;;;-145.18;100.00;46597.88;5074506;28;20029;-61
2023/07/19 08:40:13;;;;;;;6.70;3.00;;;;;;;-145.18;100.00;46593.97;5074468;28;20476;-61
2023/07/19 08:42:39;;;;;;;5.37;2.60;;;;;;;-145.18;100.00;46554.91;5074283;28;20039;-61
2023/07/19 08:45:09;;;;;;;7.50;2.57;;;;;;;-145.18;100.00;46541.25;5074556;28;20025;-61
2023/07/19 08:47:37;;;;;;;7.33;2.47;;;;;;;-145.18;100.00;46533.44;5074083;28;20032;-61
2023/07/19 08:50:07;;;;;;;7.80;2.27;;;;;;;-145.18;100.00;46535.38;5074729;28;20016;-61
2023/07/19 08:52:33;;;;;;;7.40;2.17;;;;;;;-145.18;100.00;46535.38;5074172;28;20487;-61
2023/07/19 08:55:00;;;;;;;7.30;2.20;;;;;;;-145.18;100.00;46535.38;5074491;28;20043;-61
2023/07/19 08:57:25;;;;;;;4.60;2.23;;;;;;;-145.18;100.00;46529.53;5074342;28;20075;-61
2023/07/19 08:59:51;;;;;;;5.50;2.30;;;;;;;-145.18;100.00;46535.38;5072869;28;20488;-61
2023/07/19 09:02:16;;;;;;;5.40;2.47;;;;;;;-145.18;100.00;46529.53;5062127;28;20112;-61
2023/07/19 09:05:08;;;;;;;3.77;1.97;;;;;;;-145.18;100.00;46533.44;5074252;28;20442;-61
2023/07/19 09:07:34;;;;;;;8.50;2.97;;;;;;;-145.18;100.00;46519.75;5074325;27;20119;-61
2023/07/19 09:10:00;;;;;;;5.83;1.93;;;;;;;-145.18;100.00;46527.56;5074250;28;20032;-61
2023/07/19 09:12:37;;;;;;;2.93;1.83;;;;;;;-145.18;100.00;46535.38;5074117;28;20395;-61
2023/07/19 09:15:04;;;;;;;5.37;2.00;;;;;;;-145.18;100.00;46535.38;5073620;28;20032;-61
2023/07/19 09:17:30;;;;;;;7.47;2.33;;;;;;;-145.18;100.00;46543.19;5052287;28;20071;-61
2023/07/19 09:19:55;;;;;;;7.47;2.70;;;;;;;-145.18;100.00;46543.19;5054578;28;20029;-61
2023/07/19 09:22:21;;;;;;;5.87;1.80;;;;;;;-145.18;100.00;46521.72;5055752;28;20062;-61
2023/07/19 09:25:05;;;;;;;7.00;1.80;;;;;;;-145.18;100.00;46552.97;5060080;28;20045;-61
2023/07/19 09:27:33;;;;;;;7.37;2.33;;;;;;;-145.18;100.00;46541.25;5072695;28;20131;-61
2023/07/19 09:29:59;;;;;;;5.73;2.13;;;;;;;-145.18;100.00;46513.91;5064701;28;20086;-61
2023/07/19 09:32:25;;;;;;;5.83;2.80;;;;;;;-145.18;100.00;46537.34;5065984;28;20365;-61
2023/07/19 09:34:55;;;;;;;5.50;2.57;;;;;;;-145.18;100.00;46740.47;5065863;28;20031;-61
2023/07/19 09:37:24;;;;;;;5.07;2.10;;;;;;;-145.18;100.00;47012.00;5069424;28;20052;-61
2023/07/19 09:39:52;;;;;;;7.10;2.53;;;;;;;-145.18;100.00;47133.13;5073309;28;20103;-61
2023/07/19 09:42:19;;;;;;;5.07;2.57;;;;;;;-145.18;100.00;47078.44;5062005;28;20033;-60
2023/07/19 09:44:48;;;;;;;7.67;2.37;;;;;;;-145.18;100.00;47123.38;5068591;28;20408;-60
2023/07/19 09:47:15;;;;;;;4.80;2.27;;;;;;;-145.18;100.00;47074.53;5073456;28;20025;-64
2023/07/19 09:49:44;;;;;;;6.07;2.33;;;;;;;-145.18;100.00;47090.16;5071861;28;20263;-64
2023/07/19 09:52:16;;;;;;;3.90;1.87;;;;;;;-145.18;100.00;47164.38;5055392;28;20036;-64
2023/07/19 09:54:42;;;;;;;4.87;1.77;;;;;;;-145.18;100.00;46783.47;5057469;28;20155;-64
2023/07/19 09:57:08;;;;;;;5.70;2.17;;;;;;;-145.18;100.00;47019.81;5058270;28;20040;-64
2023/07/19 09:59:33;;;;;;;4.07;2.10;;;;;;;-145.18;100.00;47066.72;5052517;28;20043;-64
2023/07/19 10:01:59;;;;;;;4.67;1.70;;;;;;;-145.18;100.00;47041.31;5051798;28;20024;-64
2023/07/19 10:04:26;;;;;;;6.63;2.30;;;;;;;-145.18;100.00;47021.78;5055281;28;20032;-64
2023/07/19 10:07:15;;;;;;;7.03;2.10;;;;;;;-145.18;100.00;47015.91;5065553;28;20021;-64
2023/07/19 10:09:42;;;;;;;8.70;2.27;;;;;;;-145.18;100.00;47039.34;5060985;28;20033;-65
2023/07/19 10:12:17;;;;;;;6.73;1.73;;;;;;;-145.18;100.00;47049.13;5062949;28;20510;-64
2023/07/19 10:14:54;;;;;;;6.73;2.23;;;;;;;-145.18;100.00;47066.72;5064651;28;20025;-65
2023/07/19 10:17:20;;;;;;;4.93;1.93;;;;;;;-145.18;100.00;47125.31;5059758;28;20559;-64
2023/07/19 10:20:10;;;;;;;5.23;2.13;;;;;;;-145.18;100.00;47121.41;5062207;28;20135;-64
2023/07/19 10:22:57;;;;;;;5.80;2.13;;;;;;;-145.18;100.00;47109.69;5063898;28;20032;-64
2023/07/19 10:25:35;;;;;;;10.07;2.30;;;;;;;-145.18;100.00;47103.81;5064547;28;20504;-64
2023/07/19 10:28:10;;;;;;;5.13;2.20;;;;;;;-145.18;100.00;47137.03;5066108;28;20056;-64
2023/07/19 10:30:55;;;;;;;6.97;2.88;;;;;;;-145.18;100.00;47139.00;5072339;28;20036;-64
2023/07/19 10:33:24;;;;;;;6.35;1.88;;;;;;;-145.18;100.00;47035.44;5072461;28;20103;-64
2023/07/19 10:35:52;;;;;;;4.03;1.73;;;;;;;-145.18;100.00;47146.81;5063658;28;20024;-64
2023/07/19 10:38:21;;;;;;;5.23;2.07;;;;;;;-145.18;100.00;47105.78;5071223;28;20021;-64
2023/07/19 10:40:52;;;;;;;5.10;2.07;;;;;;;-145.18;100.00;47113.59;5072339;28;20020;-64
2023/07/19 10:43:17;;;;;;;8.73;2.40;;;;;;;-145.18;100.00;47113.59;5070202;28;20052;-64
2023/07/19 10:45:43;;;;;;;4.10;1.90;;;;;;;-145.18;100.00;47070.63;5072258;28;20052;-63
2023/07/19 10:48:09;;;;;;;6.87;2.00;;;;;;;-145.18;100.00;47053.03;5070763;28;20036;-64
2023/07/19 10:50:35;;;;;;;6.90;1.90;;;;;;;-145.18;100.00;46719.00;5072117;28;20029;-64
2023/07/19 10:53:00;;;;;;;5.90;2.13;;;;;;;-145.18;100.00;46720.94;5072029;28;20062;-64
2023/07/19 10:55:29;;;;;;;4.20;1.57;;;;;;;-145.18;100.00;47060.84;5066286;28;20401;-64
2023/07/19 10:57:54;;;;;;;7.40;2.40;;;;;;;-145.18;100.00;47137.03;5070806;28;20029;-64
2023/07/19 11:00:19;;;;;;;7.43;2.03;;;;;;;-145.18;100.00;47131.19;5060640;28;20036;-64
2023/07/19 11:02:45;;;;;;;9.30;2.30;;;;;;;-145.18;100.00;47125.31;5070079;28;20318;-64
2023/07/19 11:05:11;;;;;;;5.70;1.83;;;;;;;-145.18;100.00;47097.97;5068814;28;20028;-64